Time;durP1;ratioP1;P1;durP2;ratioP2;P2;SDS_P1;SDS_P2;PMS_P1;PMS_P2;Temp;Humidity;BMP_temperature;BMP_pressure;BME280_temperature;BME280_humidity;BME280_pressure;Samples;Min_cycle;Max_cycle;Signal;HPM_P1;HPM_P2
2023/08/31 00:00:51;;;;;;;5.20;3.87;;;;;;;12.98;100.00;99841.03;5009745;28;20615;-77
2023/08/31 00:03:18;;;;;;;5.10;3.40;;;;;;;12.92;100.00;99832.22;5021966;28;20200;-77
2023/08/31 00:05:45;;;;;;;5.03;3.90;;;;;;;12.95;100.00;99834.84;5015856;28;20202;-75
2023/08/31 00:08:11;;;;;;;5.87;4.30;;;;;;;12.95;100.00;99838.41;5019262;28;20248;-75
2023/08/31 00:10:38;;;;;;;6.67;4.00;;;;;;;12.99;100.00;99841.91;5015711;28;20204;-75
2023/08/31 00:13:08;;;;;;;6.10;4.03;;;;;;;12.93;100.00;99842.84;5017777;28;20214;-76
2023/08/31 00:15:36;;;;;;;5.87;3.90;;;;;;;12.88;100.00;99839.31;5012332;28;20406;-75
2023/08/31 00:18:03;;;;;;;5.03;3.90;;;;;;;12.83;100.00;99843.78;5014046;28;20249;-75
2023/08/31 00:20:30;;;;;;;6.00;4.20;;;;;;;12.81;100.00;99849.09;5019464;28;20259;-75
2023/08/31 00:22:58;;;;;;;6.53;3.93;;;;;;;12.74;100.00;99846.47;5020469;28;20227;-75
2023/08/31 00:25:24;;;;;;;5.00;3.60;;;;;;;12.68;100.00;99851.81;5010151;28;20198;-75
2023/08/31 00:27:52;;;;;;;6.20;3.90;;;;;;;12.64;100.00;99848.28;5025964;28;20218;-76
2023/08/31 00:30:18;;;;;;;5.37;3.93;;;;;;;12.68;100.00;99852.69;5015916;28;20239;-75
2023/08/31 00:32:47;;;;;;;6.13;4.27;;;;;;;12.53;100.00;99856.28;5023004;28;20214;-76
2023/08/31 00:35:13;;;;;;;7.27;4.43;;;;;;;12.45;100.00;99850.13;5021101;28;20196;-76
2023/08/31 00:37:40;;;;;;;5.97;4.67;;;;;;;12.41;100.00;99856.34;5013960;28;20223;-75
2023/08/31 00:40:08;;;;;;;7.00;4.27;;;;;;;12.32;100.00;99851.03;5012315;28;20254;-75
2023/08/31 00:42:35;;;;;;;5.83;4.03;;;;;;;12.15;100.00;99853.72;5019982;28;20288;-75
2023/08/31 00:45:02;;;;;;;7.13;4.53;;;;;;;12.25;100.00;99857.22;5015205;28;20211;-75
2023/08/31 00:47:28;;;;;;;7.00;4.57;;;;;;;12.22;100.00;99857.25;5020042;28;20256;-77
2023/08/31 00:49:55;;;;;;;6.73;5.27;;;;;;;12.17;100.00;99859.91;5016144;28;20192;-77
2023/08/31 00:52:21;;;;;;;7.67;4.90;;;;;;;12.18;100.00;99853.72;5018647;28;20244;-78
2023/08/31 00:54:51;;;;;;;6.20;4.47;;;;;;;12.09;100.00;99847.53;5014363;28;20193;-75
2023/08/31 00:57:18;;;;;;;7.13;4.30;;;;;;;11.95;100.00;99857.28;5017256;28;20967;-80
2023/08/31 00:59:44;;;;;;;6.87;4.50;;;;;;;11.95;100.00;99849.31;5012754;28;20600;-83
2023/08/31 01:02:27;;;;;;;7.23;4.03;;;;;;;11.78;100.00;99855.53;5019381;28;20306;-81
2023/08/31 01:05:22;;;;;;;6.83;4.40;;;;;;;11.71;100.00;99852.84;5015299;28;20202;-82
2023/08/31 01:07:58;;;;;;;6.30;4.10;;;;;;;11.68;100.00;99848.41;5017262;28;20634;-77
2023/08/31 01:10:37;;;;;;;9.73;4.73;;;;;;;11.77;100.00;99858.13;5015303;28;20198;-79
2023/08/31 01:13:13;;;;;;;7.90;4.70;;;;;;;11.78;100.00;99849.34;5018747;28;20202;-79
2023/08/31 01:15:46;;;;;;;8.17;4.90;;;;;;;11.76;100.00;99853.72;5004481;28;20283;-82
2023/08/31 01:18:16;;;;;;;6.03;4.40;;;;;;;11.88;100.00;99859.94;5007511;28;20952;-82
2023/08/31 01:20:58;;;;;;;7.40;4.60;;;;;;;11.89;100.00;99860.81;5018933;28;20221;-82
2023/08/31 01:23:33;;;;;;;5.00;4.20;;;;;;;11.86;100.00;99853.75;5021273;28;20679;-82
2023/08/31 01:26:00;;;;;;;5.93;3.97;;;;;;;11.86;100.00;99868.78;5011683;28;20208;-81
2023/08/31 01:28:26;;;;;;;6.77;4.67;;;;;;;11.90;100.00;99865.25;5011946;28;20710;-79
2023/08/31 01:30:53;;;;;;;8.03;4.77;;;;;;;11.98;100.00;99866.09;5010628;28;20192;-82
2023/08/31 01:33:19;;;;;;;10.73;6.03;;;;;;;11.97;100.00;99868.75;5018324;28;20199;-81
2023/08/31 01:35:52;;;;;;;7.33;4.77;;;;;;;12.04;100.00;99875.88;5023699;28;20259;-80
2023/08/31 01:38:25;;;;;;;6.67;4.77;;;;;;;12.06;100.00;99877.63;5007562;28;20231;-83
2023/08/31 01:41:06;;;;;;;7.53;4.40;;;;;;;12.13;100.00;99874.06;5010336;28;20224;-82
2023/08/31 01:43:33;;;;;;;7.93;4.67;;;;;;;12.13;100.00;99876.72;5007343;28;20289;-81
2023/08/31 01:46:00;;;;;;;7.27;4.50;;;;;;;12.18;100.00;99880.25;5019374;28;20411;-81
2023/08/31 01:48:27;;;;;;;4.73;3.80;;;;;;;12.15;100.00;99872.31;5013992;28;20259;-80
2023/08/31 01:50:53;;;;;;;6.57;4.10;;;;;;;12.17;100.00;99862.56;5017976;28;20241;-78
2023/08/31 01:53:20;;;;;;;6.17;4.47;;;;;;;12.20;100.00;99865.22;5022427;28;20202;-78
2023/08/31 01:55:46;;;;;;;7.47;4.60;;;;;;;12.18;100.00;99868.75;5018693;28;20681;-76
2023/08/31 01:58:12;;;;;;;6.53;4.23;;;;;;;12.16;100.00;99862.56;5010379;28;20227;-78
2023/08/31 02:00:39;;;;;;;6.43;4.23;;;;;;;12.18;100.00;99879.38;5017032;28;20240;-76
2023/08/31 02:03:07;;;;;;;7.53;4.53;;;;;;;12.20;100.00;99874.94;5015939;28;20239;-76
2023/08/31 02:05:34;;;;;;;8.77;4.90;;;;;;;12.29;100.00;99874.94;5021569;28;20475;-75
2023/08/31 02:08:00;;;;;;;5.03;4.10;;;;;;;12.29;100.00;99876.69;5011873;28;20304;-74
2023/08/31 02:10:29;;;;;;;7.73;4.20;;;;;;;12.32;100.00;99871.38;5013447;28;20226;-76
2023/08/31 02:12:55;;;;;;;7.03;4.47;;;;;;;12.44;100.00;99866.94;5014761;28;20567;-76
2023/08/31 02:15:22;;;;;;;6.10;4.70;;;;;;;12.47;100.00;99868.72;5013002;28;20200;-76
2023/08/31 02:17:48;;;;;;;6.97;4.50;;;;;;;12.44;100.00;99879.34;5017506;28;20220;-75
2023/08/31 02:20:15;;;;;;;6.00;4.23;;;;;;;12.44;100.00;99885.53;5012599;28;20276;-76
2023/08/31 02:22:41;;;;;;;6.00;4.17;;;;;;;12.38;100.00;99877.56;5006852;28;20195;-76
2023/08/31 02:25:08;;;;;;;5.97;4.60;;;;;;;12.34;100.00;99888.19;5009091;28;20200;-76
2023/08/31 02:27:34;;;;;;;7.63;4.80;;;;;;;12.27;100.00;99884.66;5020736;28;20215;-75
2023/08/31 02:30:03;;;;;;;6.50;4.27;;;;;;;12.22;100.00;99895.28;5013986;28;20565;-75
2023/08/31 02:32:29;;;;;;;6.77;4.50;;;;;;;12.21;100.00;99892.66;5017749;28;20214;-76
2023/08/31 02:34:55;;;;;;;7.13;4.60;;;;;;;12.21;100.00;99897.94;5012558;28;20228;-76
2023/08/31 02:37:22;;;;;;;10.17;4.60;;;;;;;12.17;100.00;99891.75;5012866;28;20590;-75
2023/08/31 02:39:48;;;;;;;6.30;4.57;;;;;;;12.15;100.00;99895.31;5014702;28;20247;-76
2023/08/31 02:42:14;;;;;;;11.10;4.60;;;;;;;12.08;100.00;99901.50;5018638;28;20545;-76
2023/08/31 02:44:41;;;;;;;6.83;4.70;;;;;;;12.01;100.00;99892.69;5013571;28;20655;-76
2023/08/31 02:47:08;;;;;;;6.60;4.70;;;;;;;11.91;100.00;99899.72;5018001;28;20223;-77
2023/08/31 02:49:34;;;;;;;6.43;4.13;;;;;;;11.80;100.00;99893.53;5013916;28;20223;-77
2023/08/31 02:52:01;;;;;;;9.63;4.80;;;;;;;11.73;100.00;99899.69;5016156;28;20304;-76
2023/08/31 02:54:27;;;;;;;9.83;4.90;;;;;;;11.56;100.00;99897.00;5013473;28;20691;-78
2023/08/31 02:56:54;;;;;;;7.00;4.90;;;;;;;11.47;100.00;99897.00;5017326;28;20248;-80
2023/08/31 02:59:20;;;;;;;7.93;4.70;;;;;;;11.37;100.00;99899.63;5013395;28;20637;-80
2023/08/31 03:01:47;;;;;;;7.27;4.63;;;;;;;11.35;100.00;99896.09;5014430;28;20203;-82
2023/08/31 03:04:13;;;;;;;7.07;4.70;;;;;;;11.39;100.00;99896.09;5017717;28;20199;-78
2023/08/31 03:06:40;;;;;;;6.67;4.83;;;;;;;11.46;100.00;99889.94;5021523;28;20223;-78
2023/08/31 03:09:06;;;;;;;6.13;4.63;;;;;;;11.55;100.00;99894.34;5018769;28;20194;-79
2023/08/31 03:11:32;;;;;;;7.93;4.73;;;;;;;11.58;100.00;99902.31;5018228;28;20205;-77
2023/08/31 03:13:59;;;;;;;8.60;5.47;;;;;;;11.67;100.00;99899.69;5024218;28;20680;-78
2023/08/31 03:16:25;;;;;;;8.07;5.30;;;;;;;11.75;100.00;99900.59;5012786;28;20684;-75
2023/08/31 03:18:52;;;;;;;7.57;5.17;;;;;;;11.74;100.00;99904.13;5013674;28;20206;-76
2023/08/31 03:21:19;;;;;;;9.77;5.17;;;;;;;11.77;100.00;99903.25;5018344;28;20211;-76
2023/08/31 03:23:46;;;;;;;7.33;5.47;;;;;;;11.81;100.00;99915.66;5022128;28;20199;-75
2023/08/31 03:26:12;;;;;;;7.17;5.00;;;;;;;11.76;100.00;99909.44;5028050;28;20280;-76
2023/08/31 03:28:40;;;;;;;8.67;5.30;;;;;;;11.65;100.00;99906.78;5015488;28;20199;-77
2023/08/31 03:31:07;;;;;;;7.37;5.00;;;;;;;11.64;100.00;99910.31;5020939;28;20195;-76
2023/08/31 03:33:33;;;;;;;6.80;4.60;;;;;;;11.62;100.00;99912.06;5021319;28;20328;-77
2023/08/31 03:36:01;;;;;;;7.80;4.93;;;;;;;11.58;100.00;99912.94;5023297;28;20698;-77
2023/08/31 03:38:27;;;;;;;9.97;5.23;;;;;;;11.53;100.00;99914.69;5016600;28;20224;-78
2023/08/31 03:40:55;;;;;;;6.37;4.70;;;;;;;11.49;100.00;99911.16;5029862;28;20215;-79
2023/08/31 03:43:21;;;;;;;6.80;4.33;;;;;;;11.45;100.00;99909.38;5014761;28;20293;-78
2023/08/31 03:45:48;;;;;;;8.30;4.70;;;;;;;11.53;100.00;99906.72;5017621;28;20211;-79
2023/08/31 03:48:14;;;;;;;8.80;4.63;;;;;;;11.49;100.00;99913.81;5026676;28;20229;-78
2023/08/31 03:50:41;;;;;;;8.60;4.47;;;;;;;11.53;100.00;99912.91;5012444;28;20211;-79
2023/08/31 03:53:07;;;;;;;7.10;4.70;;;;;;;11.54;100.00;99919.09;5021623;28;20199;-79
2023/08/31 03:55:35;;;;;;;9.53;4.90;;;;;;;11.40;100.00;99915.56;5013127;28;20555;-82
2023/08/31 03:58:02;;;;;;;10.80;4.40;;;;;;;11.33;100.00;99922.63;5017500;28;20232;-82
2023/08/31 04:00:28;;;;;;;7.93;4.67;;;;;;;11.27;100.00;99925.25;5012113;28;20224;-81
2023/08/31 04:02:55;;;;;;;9.47;5.00;;;;;;;11.33;100.00;99921.72;5017037;28;20671;-82
2023/08/31 04:05:21;;;;;;;6.30;4.70;;;;;;;11.29;100.00;99934.09;5024517;28;20253;-82
2023/08/31 04:07:48;;;;;;;7.37;5.00;;;;;;;11.15;100.00;99943.75;5014848;28;20304;-81
2023/08/31 04:10:14;;;;;;;8.80;5.10;;;;;;;11.12;100.00;99947.25;5014558;28;20197;-82
2023/08/31 04:12:42;;;;;;;8.97;4.73;;;;;;;10.92;100.00;99951.59;5019692;28;20717;-80
2023/08/31 04:15:09;;;;;;;6.43;4.60;;;;;;;10.77;100.00;99955.03;5012558;28;20195;-78
2023/08/31 04:17:36;;;;;;;6.13;4.70;;;;;;;10.70;100.00;99950.59;5015884;28;20321;-75
2023/08/31 04:20:05;;;;;;;5.83;4.37;;;;;;;10.60;100.00;99948.78;5015487;28;20232;-75
2023/08/31 04:22:32;;;;;;;7.07;4.47;;;;;;;10.47;100.00;99955.75;5011018;28;20255;-75
2023/08/31 04:24:58;;;;;;;8.53;5.20;;;;;;;10.38;100.00;99962.72;5011658;28;20196;-76
2023/08/31 04:27:24;;;;;;;9.40;5.23;;;;;;;10.43;100.00;99964.56;5010440;28;20597;-76
2023/08/31 04:29:51;;;;;;;9.00;5.50;;;;;;;10.61;100.00;99964.66;5020447;28;20210;-74
2023/08/31 04:32:17;;;;;;;7.67;5.20;;;;;;;10.48;100.00;99959.28;5009658;28;20331;-74
2023/08/31 04:34:44;;;;;;;9.00;5.50;;;;;;;10.39;100.00;99967.16;5011629;28;20210;-74
2023/08/31 04:37:10;;;;;;;9.20;5.40;;;;;;;10.47;100.00;99960.16;5010461;28;20220;-74
2023/08/31 04:39:36;;;;;;;8.37;5.43;;;;;;;10.60;100.00;99959.38;5008521;28;20548;-74
2023/08/31 04:42:03;;;;;;;9.93;6.07;;;;;;;10.66;100.00;99964.69;5008446;28;20581;-74
2023/08/31 04:44:30;;;;;;;10.40;5.77;;;;;;;10.74;100.00;99959.44;5015246;28;20676;-74
2023/08/31 04:46:56;;;;;;;7.57;5.27;;;;;;;10.68;100.00;99971.78;5010329;28;20231;-74
2023/08/31 04:49:23;;;;;;;8.97;5.57;;;;;;;10.70;100.00;99979.72;5009832;28;20293;-74
2023/08/31 04:51:49;;;;;;;8.50;5.47;;;;;;;10.68;100.00;99973.53;5012881;28;20196;-74
2023/08/31 04:54:16;;;;;;;8.70;6.00;;;;;;;10.73;100.00;99978.84;5009825;28;20703;-74
2023/08/31 04:56:42;;;;;;;11.63;5.30;;;;;;;10.72;100.00;99987.69;5012744;28;20226;-74
2023/08/31 04:59:09;;;;;;;7.63;4.90;;;;;;;10.81;100.00;99987.75;5016954;28;20204;-74
2023/08/31 05:01:35;;;;;;;9.13;5.10;;;;;;;10.91;100.00;99986.94;5016089;28;20244;-74
2023/08/31 05:04:02;;;;;;;7.17;5.03;;;;;;;11.01;100.00;99994.03;5020203;28;20302;-74
2023/08/31 05:06:29;;;;;;;8.50;4.90;;;;;;;11.07;100.00;99995.81;5019356;28;20334;-74
2023/08/31 05:08:56;;;;;;;8.83;4.80;;;;;;;11.09;100.00;99996.72;5011018;28;20198;-74
2023/08/31 05:11:23;;;;;;;7.50;4.83;;;;;;;11.22;100.00;100006.53;5019011;28;20200;-75
2023/08/31 05:13:49;;;;;;;7.07;4.57;;;;;;;11.28;100.00;100002.13;5008711;28;20200;-74
2023/08/31 05:16:15;;;;;;;9.17;4.97;;;;;;;11.41;100.00;100003.06;5012161;28;20202;-75
2023/08/31 05:18:42;;;;;;;7.40;4.53;;;;;;;11.55;100.00;100014.59;5015301;28;20204;-74
2023/08/31 05:21:08;;;;;;;6.43;4.63;;;;;;;11.65;100.00;100006.69;5017904;28;20231;-74
2023/08/31 05:23:35;;;;;;;7.73;4.53;;;;;;;11.75;100.00;100013.78;5019346;28;20193;-74
2023/08/31 05:26:01;;;;;;;7.50;4.40;;;;;;;11.83;100.00;100018.25;5003466;28;20272;-75
2023/08/31 05:28:28;;;;;;;5.97;4.30;;;;;;;11.90;100.00;100029.75;5023870;28;20216;-74
2023/08/31 05:31:00;;;;;;;5.30;4.23;;;;;;;11.97;100.00;100022.69;5011374;28;20221;-76
2023/08/31 05:33:28;;;;;;;6.97;4.57;;;;;;;12.11;100.00;100026.25;5009853;28;20292;-81
2023/08/31 05:35:55;;;;;;;7.27;4.47;;;;;;;12.21;100.00;100026.28;5009199;28;20229;-80
2023/08/31 05:38:21;;;;;;;6.03;4.40;;;;;;;12.38;100.00;100034.22;5009821;28;20231;-79
2023/08/31 05:40:48;;;;;;;8.33;4.43;;;;;;;12.56;100.00;100030.72;5006528;28;20217;-80
2023/08/31 05:43:16;;;;;;;6.03;4.17;;;;;;;12.71;100.00;100041.31;5007745;28;20205;-80
2023/08/31 05:45:42;;;;;;;7.43;4.13;;;;;;;12.85;100.00;100043.97;5006351;28;20214;-80
2023/08/31 05:48:09;;;;;;;5.70;3.80;;;;;;;13.01;100.00;100043.03;5018956;28;20657;-79
2023/08/31 05:50:36;;;;;;;6.43;3.47;;;;;;;13.14;100.00;100055.41;5008727;28;20610;-80
2023/08/31 05:53:04;;;;;;;4.43;3.20;;;;;;;13.20;100.00;100046.56;5015794;28;20209;-80
2023/08/31 05:55:31;;;;;;;4.23;3.27;;;;;;;13.41;100.00;100057.16;5008968;28;20840;-78
2023/08/31 05:57:58;;;;;;;5.83;3.40;;;;;;;13.45;100.00;100055.38;5011881;28;20222;-79
2023/08/31 06:00:24;;;;;;;4.43;3.30;;;;;;;13.45;100.00;100052.69;5011949;28;20225;-79
2023/08/31 06:02:50;;;;;;;5.77;3.90;;;;;;;13.36;100.00;100047.44;4997076;28;20199;-74
2023/08/31 06:05:17;;;;;;;4.87;3.33;;;;;;;13.29;100.00;100056.31;5004365;28;20202;-82
2023/08/31 06:07:43;;;;;;;5.43;3.17;;;;;;;13.22;100.00;100062.56;5010261;28;20222;-79
2023/08/31 06:10:10;;;;;;;5.67;3.27;;;;;;;13.24;100.00;100050.13;5011209;28;20199;-80
2023/08/31 06:12:37;;;;;;;4.63;3.37;;;;;;;13.25;100.00;100055.44;5005994;28;20205;-78
2023/08/31 06:15:04;;;;;;;5.87;3.13;;;;;;;13.21;100.00;100059.00;5006824;28;20225;-79
2023/08/31 06:17:30;;;;;;;4.33;3.37;;;;;;;13.16;100.00;100055.41;5008554;28;20781;-79
2023/08/31 06:19:57;;;;;;;6.70;3.23;;;;;;;13.21;100.00;100063.41;5007918;28;20222;-80
2023/08/31 06:22:24;;;;;;;4.47;3.27;;;;;;;13.25;100.00;100070.53;5006255;28;20303;-77
2023/08/31 06:24:51;;;;;;;4.43;3.23;;;;;;;13.33;100.00;100071.38;5011376;28;20230;-79
2023/08/31 06:27:18;;;;;;;6.03;3.20;;;;;;;13.45;100.00;100068.66;5021899;28;20817;-77
2023/08/31 06:29:44;;;;;;;4.37;3.00;;;;;;;13.36;100.00;100074.03;5008582;28;20290;-77
2023/08/31 06:32:11;;;;;;;7.23;3.23;;;;;;;13.63;100.00;100075.72;4997364;28;20682;-76
2023/08/31 06:34:37;;;;;;;5.07;3.07;;;;;;;13.83;100.00;100075.59;5009266;28;20207;-76
2023/08/31 06:37:04;;;;;;;6.60;2.97;;;;;;;14.03;100.00;100071.06;5006025;28;20220;-74
2023/08/31 06:39:31;;;;;;;6.90;3.20;;;;;;;14.40;100.00;100082.34;5015763;28;20203;-73
2023/08/31 06:41:57;;;;;;;5.20;2.90;;;;;;;14.96;100.00;100078.38;5013771;28;20223;-73
2023/08/31 06:44:23;;;;;;;6.17;2.80;;;;;;;15.19;100.00;100078.16;5016193;28;20211;-71
2023/08/31 06:46:50;;;;;;;7.33;2.57;;;;;;;15.39;100.00;100072.63;5014743;28;20253;-70
2023/08/31 06:49:16;;;;;;;4.53;2.70;;;;;;;15.61;100.00;100072.38;5010313;28;20546;-71
2023/08/31 06:51:43;;;;;;;8.90;3.00;;;;;;;15.70;100.00;100081.19;5013441;28;20196;-71
2023/08/31 06:54:09;;;;;;;3.97;2.43;;;;;;;15.95;100.00;100093.28;5008889;28;20236;-67
2023/08/31 06:56:36;;;;;;;9.03;2.63;;;;;;;16.28;100.00;100087.50;5014656;28;20266;-70
2023/08/31 06:59:03;;;;;;;3.30;2.30;;;;;;;16.52;100.00;100094.28;5008722;28;20287;-68
2023/08/31 07:01:32;;;;;;;4.60;2.67;;;;;;;16.63;100.00;100078.06;5010383;28;20688;-70
2023/08/31 07:03:59;;;;;;;6.00;2.53;;;;;;;16.52;100.00;100090.72;5013530;28;20676;-70
2023/08/31 07:06:26;;;;;;;3.83;2.60;;;;;;;16.25;100.00;100103.56;5014924;28;20262;-69
2023/08/31 07:08:54;;;;;;;3.93;2.70;;;;;;;15.71;100.00;100106.97;5007104;28;20200;-70
2023/08/31 07:11:21;;;;;;;3.33;2.27;;;;;;;15.59;100.00;100107.97;5008736;28;20200;-71
2023/08/31 07:13:47;;;;;;;4.10;2.47;;;;;;;15.31;100.00;100115.41;5023961;28;20203;-70
2023/08/31 07:16:14;;;;;;;3.10;2.23;;;;;;;15.04;100.00;100120.09;5012838;28;20665;-69
2023/08/31 07:18:40;;;;;;;5.27;2.60;;;;;;;15.16;100.00;100123.53;5005685;28;20196;-70
2023/08/31 07:21:08;;;;;;;4.10;2.57;;;;;;;15.11;100.00;100106.69;5007726;28;20223;-69
2023/08/31 07:23:37;;;;;;;5.13;2.77;;;;;;;15.28;100.00;100115.44;5007264;28;20196;-70
2023/08/31 07:26:04;;;;;;;7.13;2.57;;;;;;;15.29;100.00;100115.41;5008528;28;20211;-69
2023/08/31 07:28:31;;;;;;;5.10;2.63;;;;;;;15.54;100.00;100112.47;5010083;28;20220;-70
2023/08/31 07:31:16;;;;;;;4.37;2.50;;;;;;;16.28;100.00;100110.66;5011843;28;20207;-67
2023/08/31 07:33:42;;;;;;;4.13;2.60;;;;;;;16.20;100.00;100108.09;5008627;28;20223;-70
2023/08/31 07:36:09;;;;;;;5.77;2.40;;;;;;;15.64;100.00;100112.41;5014540;28;20278;-69
2023/08/31 07:38:35;;;;;;;4.17;2.60;;;;;;;15.88;100.00;100113.88;5010663;28;20201;-67
2023/08/31 07:41:04;;;;;;;4.87;2.43;;;;;;;16.59;100.00;100114.66;5008359;28;20311;-69
2023/08/31 07:43:30;;;;;;;4.60;2.40;;;;;;;16.66;100.00;100112.78;5007657;28;20711;-69
2023/08/31 07:45:57;;;;;;;5.53;2.60;;;;;;;16.70;100.00;100117.19;5016822;28;20206;-68
2023/08/31 07:48:23;;;;;;;5.53;3.10;;;;;;;16.59;100.00;100106.63;5006806;28;21902;-70
2023/08/31 07:50:57;;;;;;;5.93;2.73;;;;;;;16.56;100.00;100111.16;5008602;28;20282;-69
2023/08/31 07:53:24;;;;;;;5.83;2.93;;;;;;;16.68;100.00;100110.97;5013150;28;20207;-69
2023/08/31 07:55:54;;;;;;;7.70;2.60;;;;;;;16.76;100.00;100118.88;5010283;28;20196;-69
2023/08/31 07:58:23;;;;;;;5.63;2.60;;;;;;;16.92;100.00;100123.97;5039434;28;20226;-72
2023/08/31 08:00:55;;;;;;;5.47;2.20;;;;;;;16.88;100.00;100124.94;5013783;28;20331;-71
2023/08/31 08:03:23;;;;;;;6.37;2.43;;;;;;;17.14;100.00;100136.97;5013111;28;20205;-70
2023/08/31 08:05:50;;;;;;;5.20;2.33;;;;;;;17.41;100.00;100133.78;5011951;28;20257;-70
2023/08/31 08:08:16;;;;;;;6.07;2.47;;;;;;;17.44;100.00;100140.88;5012101;28;20734;-70
2023/08/31 08:10:43;;;;;;;3.90;2.30;;;;;;;17.50;100.00;100151.47;5015646;28;20200;-71
2023/08/31 08:13:12;;;;;;;5.40;2.23;;;;;;;17.62;100.00;100145.03;5010147;28;20732;-72
2023/08/31 08:15:38;;;;;;;4.33;2.20;;;;;;;17.62;100.00;100153.06;5010629;28;20200;-72
2023/08/31 08:18:05;;;;;;;5.57;2.03;;;;;;;18.07;100.00;100145.94;5014987;28;20250;-73
2023/08/31 08:20:34;;;;;;;5.10;2.27;;;;;;;18.71;100.00;100140.03;5016394;28;20200;-74
2023/08/31 08:23:00;;;;;;;4.33;2.30;;;;;;;19.05;100.00;100144.56;5011089;28;20627;-72
2023/08/31 08:25:27;;;;;;;4.90;2.13;;;;;;;19.17;100.00;100149.63;5013552;28;20219;-72
2023/08/31 08:27:53;;;;;;;5.73;2.10;;;;;;;19.70;100.00;100152.75;5010636;28;20720;-70
2023/08/31 08:30:19;;;;;;;5.33;2.20;;;;;;;19.91;100.00;100152.13;5016904;28;20200;-70
2023/08/31 08:32:46;;;;;;;4.20;2.10;;;;;;;19.62;100.00;100163.69;5015570;28;20663;-70
2023/08/31 08:35:12;;;;;;;3.87;2.00;;;;;;;19.60;100.00;100157.47;5003098;28;20201;-69
2023/08/31 08:37:39;;;;;;;5.70;2.30;;;;;;;19.86;100.00;100161.25;5016534;28;20724;-72
2023/08/31 08:40:06;;;;;;;4.93;1.90;;;;;;;19.61;100.00;100152.97;5009829;28;20426;-73
2023/08/31 08:42:41;;;;;;;4.28;2.25;;;;;;;19.54;100.00;100152.25;5011251;28;20216;-71
2023/08/31 08:45:12;;;;;;;3.37;2.00;;;;;;;19.88;100.00;100156.72;5006429;28;20238;-71
2023/08/31 08:47:39;;;;;;;5.22;1.88;;;;;;;20.14;100.00;100161.34;5017053;28;20220;-70
2023/08/31 08:50:06;;;;;;;3.38;2.03;;;;;;;19.96;100.00;100168.13;5012787;28;20287;-71
2023/08/31 08:52:33;;;;;;;4.40;2.20;;;;;;;19.79;100.00;100165.03;5013810;28;20666;-71
2023/08/31 08:55:00;;;;;;;6.20;2.20;;;;;;;19.59;100.00;100168.25;5015729;28;20204;-71
2023/08/31 08:57:27;;;;;;;5.38;2.17;;;;;;;19.45;100.00;100162.34;5019016;28;20216;-71
2023/08/31 08:59:54;;;;;;;5.20;2.30;;;;;;;19.42;100.00;100166.88;5004216;28;20231;-70
2023/08/31 09:02:20;;;;;;;4.72;2.28;;;;;;;19.38;100.00;100169.69;5011480;28;20598;-70
2023/08/31 09:04:47;;;;;;;3.30;1.92;;;;;;;19.56;100.00;100171.03;5009668;28;20200;-69
2023/08/31 09:07:13;;;;;;;4.97;2.42;;;;;;;19.91;100.00;100162.88;5012793;28;20216;-70
2023/08/31 09:09:53;;;;;;;4.88;2.20;;;;;;;20.46;100.00;100161.28;5015677;28;20661;-69
2023/08/31 09:12:24;;;;;;;4.53;2.30;;;;;;;20.93;89.22;100169.69;5006877;28;20291;-70
2023/08/31 09:15:16;;;;;;;4.95;1.80;;;;;;;21.03;86.13;100171.13;5010057;28;20200;-70
2023/08/31 09:17:47;;;;;;;3.58;1.88;;;;;;;20.82;80.75;100167.34;5009497;28;20212;-71
2023/08/31 09:20:14;;;;;;;3.70;1.90;;;;;;;21.16;79.32;100175.16;5014774;28;20296;-71
2023/08/31 09:22:44;;;;;;;4.88;1.83;;;;;;;21.61;75.65;100170.97;5009213;28;20666;-71
2023/08/31 09:25:10;;;;;;;2.30;1.83;;;;;;;22.14;74.26;100161.88;5023633;28;20196;-71
2023/08/31 09:27:38;;;;;;;6.40;2.00;;;;;;;22.54;67.46;100154.94;5011094;28;20270;-71
2023/08/31 09:30:14;;;;;;;4.65;1.85;;;;;;;22.76;64.93;100169.31;5004041;28;20227;-71
2023/08/31 09:32:41;;;;;;;4.10;1.92;;;;;;;22.28;65.50;100168.56;5005115;28;20273;-70
2023/08/31 09:35:08;;;;;;;4.00;1.85;;;;;;;22.19;66.14;100164.38;5031860;28;20701;-70
2023/08/31 09:37:56;;;;;;;5.32;1.98;;;;;;;21.93;67.73;100157.22;5009446;28;20223;-70
2023/08/31 09:40:23;;;;;;;4.13;2.05;;;;;;;21.88;67.59;100160.09;5010626;28;20213;-71
2023/08/31 09:42:50;;;;;;;5.38;2.00;;;;;;;21.74;69.21;100156.16;5008773;28;20238;-71
2023/08/31 09:45:24;;;;;;;5.57;1.85;;;;;;;22.05;66.79;100156.84;5004509;28;20214;-72
2023/08/31 09:48:09;;;;;;;4.25;2.03;;;;;;;21.96;66.95;100157.13;5003935;28;20234;-71
2023/08/31 09:50:37;;;;;;;4.10;1.90;;;;;;;21.24;68.19;100154.31;5003473;28;20262;-71
2023/08/31 09:53:05;;;;;;;4.88;1.80;;;;;;;21.22;70.35;100155.25;5008899;28;20602;-71
2023/08/31 09:55:32;;;;;;;5.43;1.95;;;;;;;21.22;69.52;100156.13;5007247;28;20208;-71
2023/08/31 09:58:00;;;;;;;3.63;2.10;;;;;;;20.99;69.74;100155.13;5007284;28;20243;-71
2023/08/31 10:00:41;;;;;;;3.40;1.90;;;;;;;20.34;72.08;100162.50;5010595;28;20196;-71
2023/08/31 10:03:08;;;;;;;5.18;2.05;;;;;;;20.26;72.66;100159.16;5011787;28;20223;-70
2023/08/31 10:05:35;;;;;;;4.15;2.08;;;;;;;20.37;74.49;100157.94;5009132;28;20230;-70
2023/08/31 10:08:02;;;;;;;3.60;1.77;;;;;;;20.60;72.42;100156.34;5010272;28;20223;-70
2023/08/31 10:10:30;;;;;;;4.03;2.00;;;;;;;20.70;71.62;100158.75;5039790;28;20675;-70
2023/08/31 10:12:58;;;;;;;5.07;2.10;;;;;;;20.95;70.22;100146.28;5007548;28;20202;-70
2023/08/31 10:15:31;;;;;;;4.25;2.20;;;;;;;21.04;68.64;100150.47;5011641;28;20215;-71
2023/08/31 10:17:59;;;;;;;3.53;1.90;;;;;;;21.16;69.34;100155.44;5007340;28;20215;-71
2023/08/31 10:20:28;;;;;;;3.63;1.63;;;;;;;21.31;65.97;100156.78;5005851;28;20680;-71
2023/08/31 10:22:57;;;;;;;3.85;1.90;;;;;;;21.54;65.20;100156.84;4996936;28;20219;-71
2023/08/31 10:25:26;;;;;;;4.32;1.92;;;;;;;21.47;63.65;100147.22;5005246;28;20709;-72
2023/08/31 10:27:54;;;;;;;2.75;1.63;;;;;;;21.50;64.86;100149.81;5006172;28;20216;-71
2023/08/31 10:30:26;;;;;;;3.30;1.67;;;;;;;21.51;66.85;100151.56;5003579;28;20207;-71
2023/08/31 10:33:22;;;;;;;2.80;1.80;;;;;;;21.81;65.27;100139.69;5006411;28;20219;-71
2023/08/31 10:35:51;;;;;;;3.75;1.50;;;;;;;22.13;62.22;100143.03;5005415;28;20203;-71
2023/08/31 10:38:30;;;;;;;2.40;1.58;;;;;;;21.97;61.81;100142.69;5005005;28;20212;-71
2023/08/31 10:41:05;;;;;;;3.85;1.55;;;;;;;21.93;61.66;100153.66;5001691;28;20250;-71
2023/08/31 10:43:50;;;;;;;4.43;1.58;;;;;;;22.23;58.90;100138.16;5001791;28;20306;-71
2023/08/31 10:46:28;;;;;;;3.97;1.55;;;;;;;22.08;58.82;100145.03;5004166;28;20200;-71
2023/08/31 10:49:09;;;;;;;2.55;1.58;;;;;;;21.42;61.47;100151.91;5005373;28;20192;-71
2023/08/31 10:51:37;;;;;;;2.13;1.58;;;;;;;21.38;61.44;100136.78;5004651;28;20335;-71
2023/08/31 10:54:15;;;;;;;3.15;1.63;;;;;;;21.46;62.94;100151.72;5004943;28;20251;-71
2023/08/31 10:56:56;;;;;;;4.57;1.52;;;;;;;21.82;61.45;100146.84;5005794;28;20238;-71
2023/08/31 10:59:25;;;;;;;2.65;1.60;;;;;;;21.92;59.40;100141.09;5008656;28;20656;-70
2023/08/31 11:02:02;;;;;;;3.60;1.63;;;;;;;22.07;58.29;100143.28;5021210;28;20278;-71
2023/08/31 11:04:30;;;;;;;3.17;1.67;;;;;;;22.26;56.65;100138.06;5005260;28;20703;-70
2023/08/31 11:07:13;;;;;;;3.17;1.52;;;;;;;22.77;55.32;100135.09;5009403;28;20212;-71
2023/08/31 11:09:40;;;;;;;2.97;1.63;;;;;;;23.11;52.63;100140.91;5004373;28;20357;-70
2023/08/31 11:12:07;;;;;;;3.75;1.58;;;;;;;23.24;52.55;100132.31;5006344;28;20292;-71
2023/08/31 11:14:33;;;;;;;3.40;1.83;;;;;;;22.63;54.35;100130.28;5009162;28;20623;-71
2023/08/31 11:17:01;;;;;;;4.70;1.60;;;;;;;22.52;53.98;100137.94;5006564;28;20601;-71
2023/08/31 11:19:30;;;;;;;4.00;1.75;;;;;;;21.99;55.35;100142.63;5009251;28;20200;-71
2023/08/31 11:21:57;;;;;;;2.67;1.63;;;;;;;22.06;54.79;100141.53;5006075;28;20220;-71
2023/08/31 11:24:24;;;;;;;4.93;1.40;;;;;;;21.93;54.64;100132.06;5025090;28;20913;-70
2023/08/31 11:26:51;;;;;;;3.35;1.50;;;;;;;22.05;54.97;100134.38;5007859;28;20219;-71